createdAt,value
2018-08-12T00:00:30.588Z,549.4
2018-08-12T00:01:32.460Z,549.9
2018-08-12T00:02:34.627Z,549.7
2018-08-12T00:03:36.515Z,549.7
2018-08-12T00:04:38.686Z,549.8
2018-08-12T00:05:40.855Z,550.3
2018-08-12T00:06:42.483Z,550.1
2018-08-12T00:07:44.656Z,550
2018-08-12T00:08:46.586Z,549.9
2018-08-12T00:09:48.766Z,549.9
2018-08-12T00:10:51.212Z,549.7
2018-08-12T00:11:53.095Z,549.8
2018-08-12T00:12:55.005Z,549.5
2018-08-12T00:13:57.456Z,549.6
2018-08-12T00:14:59.650Z,549.9
2018-08-12T00:16:02.074Z,550.4
2018-08-12T00:17:04.245Z,550
2018-08-12T00:18:06.695Z,550.6
2018-08-12T00:19:09.141Z,550.2
2018-08-12T00:20:11.013Z,550.8
2018-08-12T00:21:13.158Z,550.5
2018-08-12T00:22:15.357Z,550.8
2018-08-12T00:23:17.516Z,551.1
2018-08-12T00:24:19.703Z,550.9
2018-08-12T00:25:21.883Z,550.7
2018-08-12T00:26:23.796Z,551.2
2018-08-12T00:27:25.968Z,551
2018-08-12T00:28:28.436Z,550.5
2018-08-12T00:29:30.867Z,550.9
2018-08-12T00:30:32.779Z,551.3
2018-08-12T00:31:35.219Z,551.1
2018-08-12T00:32:37.130Z,551.2
2018-08-12T00:33:39.585Z,551.4
2018-08-12T00:34:42.026Z,551.4
2018-08-12T00:35:43.938Z,551.3
2018-08-12T00:36:46.123Z,551.4
2018-08-12T00:37:48.055Z,551.5
2018-08-12T00:38:50.228Z,551.4
2018-08-12T00:39:52.676Z,551.3
2018-08-12T00:40:54.835Z,551.3
2018-08-12T00:41:57.003Z,551.2
2018-08-12T00:42:59.178Z,551.3
2018-08-12T00:44:01.357Z,551.7
2018-08-12T00:45:02.956Z,551.4
2018-08-12T00:46:05.149Z,551.7
2018-08-12T00:47:07.324Z,551.9
2018-08-12T00:48:09.796Z,551.9
2018-08-12T00:49:12.239Z,551.9
2018-08-12T00:50:14.160Z,552.2
2018-08-12T00:51:16.340Z,552
2018-08-12T00:52:18.786Z,552.3
2018-08-12T00:53:21.275Z,552.5
2018-08-12T00:54:23.417Z,552.4
2018-08-12T00:55:25.864Z,552.6
2018-08-12T00:56:27.784Z,552.6
2018-08-12T00:57:30.220Z,552.8
2018-08-12T00:58:32.681Z,553
2018-08-12T00:59:34.855Z,552.5
2018-08-12T01:00:36.744Z,552.5
2018-08-12T01:01:38.927Z,552.7
2018-08-12T01:02:40.810Z,552.7
2018-08-12T01:03:42.690Z,553
2018-08-12T01:04:44.872Z,552.8
2018-08-12T01:05:47.324Z,553
2018-08-12T01:06:49.216Z,553.1
2018-08-12T01:07:51.388Z,553
2018-08-12T01:08:53.840Z,553.1
2018-08-12T01:09:56.015Z,553
2018-08-12T01:10:57.887Z,553.6
2018-08-12T01:12:00.331Z,553.3
2018-08-12T01:13:02.516Z,553.7
2018-08-12T01:14:04.707Z,553.8
2018-08-12T01:15:07.167Z,553.8
2018-08-12T01:16:09.613Z,553.9
2018-08-12T01:17:12.046Z,553.8
2018-08-12T01:18:14.225Z,554.1
2018-08-12T01:19:16.430Z,554
2018-08-12T01:20:18.864Z,554.1
2018-08-12T01:21:21.045Z,554.1
2018-08-12T01:22:23.237Z,554.1
2018-08-12T01:23:25.685Z,554.2
2018-08-12T01:24:27.600Z,554.1
2018-08-12T01:25:29.496Z,554.4
2018-08-12T01:26:31.933Z,554.7
2018-08-12T01:27:34.379Z,554.5
2018-08-12T01:28:36.828Z,554.5
2018-08-12T01:29:39.009Z,554.4
2018-08-12T01:30:41.176Z,554.7
2018-08-12T01:31:43.622Z,554.7
2018-08-12T01:32:46.080Z,555
2018-08-12T01:33:47.966Z,554.8
2018-08-12T01:34:50.415Z,555.1
2018-08-12T01:35:52.770Z,555.1
2018-08-12T01:36:55.252Z,555.3
2018-08-12T01:37:57.704Z,555.7
2018-08-12T01:39:00.149Z,555.3
2018-08-12T01:40:02.020Z,555.7
2018-08-12T01:41:04.489Z,555.9
2018-08-12T01:42:06.643Z,555.9
2018-08-12T01:43:09.095Z,555.7
2018-08-12T01:44:11.529Z,555.9
2018-08-12T01:45:13.140Z,556.1
2018-08-12T01:46:15.305Z,556.2
2018-08-12T01:47:17.220Z,556.2
2018-08-12T01:48:19.668Z,556
2018-08-12T01:49:21.849Z,556.1
2018-08-12T01:50:24.025Z,556.3
2018-08-12T01:51:26.465Z,556.1
2018-08-12T01:52:28.369Z,556.3
2018-08-12T01:53:30.533Z,556.3
2018-08-12T01:54:32.976Z,556.6
2018-08-12T01:55:35.427Z,556.5
2018-08-12T01:56:37.580Z,556.6
2018-08-12T01:57:39.454Z,557
2018-08-12T01:58:41.625Z,557.1
2018-08-12T01:59:44.079Z,557
2018-08-12T02:00:46.255Z,557.4
2018-08-12T02:01:48.412Z,557.5
2018-08-12T02:02:50.584Z,557.5
2018-08-12T02:03:53.025Z,557.8
2018-08-12T02:04:55.470Z,557.8
2018-08-12T02:05:57.653Z,557.7
2018-08-12T02:06:59.566Z,558
2018-08-12T02:08:01.734Z,558
2018-08-12T02:09:03.929Z,558.2
2018-08-12T02:10:06.375Z,557.9
2018-08-12T02:11:08.828Z,558.2
2018-08-12T02:12:11.270Z,558.1
2018-08-12T02:13:13.186Z,558.3
2018-08-12T02:14:15.656Z,558.2
2018-08-12T02:15:17.815Z,558.9
2018-08-12T02:16:18.894Z,558.5
2018-08-12T02:17:20.786Z,558.6
2018-08-12T02:18:23.259Z,559.1
2018-08-12T02:19:25.143Z,558.9
2018-08-12T02:20:27.604Z,559.1
2018-08-12T02:21:29.780Z,559.2
2018-08-12T02:22:31.956Z,559.3
2018-08-12T02:23:34.130Z,559.6
2018-08-12T02:24:36.326Z,559.6
2018-08-12T02:25:38.509Z,559.7
2018-08-12T02:26:40.682Z,559.8
2018-08-12T02:27:42.893Z,559.8
2018-08-12T02:28:45.338Z,560.1
2018-08-12T02:29:47.237Z,560
2018-08-12T02:30:49.397Z,560.2
2018-08-12T02:31:51.573Z,559.8
2018-08-12T02:32:54.026Z,560.2
2018-08-12T02:33:56.480Z,560.1
2018-08-12T02:34:58.924Z,560.2
2018-08-12T02:36:00.837Z,560.1
2018-08-12T02:37:02.737Z,560
2018-08-12T02:38:04.910Z,560.3
2018-08-12T02:39:07.345Z,560.4
2018-08-12T02:40:09.234Z,560.4
2018-08-12T02:41:11.406Z,560.6
2018-08-12T02:42:13.325Z,561.1
2018-08-12T02:43:15.762Z,561.1
2018-08-12T02:44:17.926Z,561.1
2018-08-12T02:45:20.090Z,561.4
2018-08-12T02:46:22.533Z,561.4
2018-08-12T02:47:25.001Z,561.2
2018-08-12T02:48:26.906Z,561.3
2018-08-12T02:49:28.805Z,561.6
2018-08-12T02:50:31.256Z,561.3
2018-08-12T02:51:33.713Z,561.7
2018-08-12T02:52:35.315Z,561.6
2018-08-12T02:53:37.499Z,561.6
2018-08-12T02:54:39.941Z,561.9
2018-08-12T02:55:42.116Z,562
2018-08-12T02:56:44.272Z,562.4
2018-08-12T02:57:46.417Z,561.9
2018-08-12T02:58:48.598Z,562.6
2018-08-12T02:59:51.049Z,562.7
2018-08-12T03:00:53.482Z,563
2018-08-12T03:01:55.381Z,562.7
2018-08-12T03:02:57.546Z,562.9
2018-08-12T03:03:59.478Z,563.1
2018-08-12T03:05:01.659Z,563.1
2018-08-12T03:06:04.107Z,563.4
2018-08-12T03:07:05.743Z,563.4
2018-08-12T03:08:07.935Z,563.5
2018-08-12T03:09:10.384Z,563.7
2018-08-12T03:10:12.533Z,563.5
2018-08-12T03:11:14.997Z,563.9
2018-08-12T03:12:16.875Z,563.9
2018-08-12T03:13:19.037Z,564.1
2018-08-12T03:14:21.215Z,564.1
2018-08-12T03:15:23.368Z,563.8
2018-08-12T03:16:25.552Z,564.4
2018-08-12T03:17:27.473Z,564.1
2018-08-12T03:18:29.655Z,564.6
2018-08-12T03:19:31.829Z,564.3
2018-08-12T03:20:34.275Z,564.3
2018-08-12T03:21:36.486Z,564.4
2018-08-12T03:22:38.765Z,564.4
2018-08-12T03:23:40.947Z,564.7
2018-08-12T03:24:43.087Z,564.8
2018-08-12T03:25:45.257Z,564.8
2018-08-12T03:26:47.706Z,565.1
2018-08-12T03:27:50.149Z,564.9
2018-08-12T03:28:52.339Z,564.9
2018-08-12T03:29:54.933Z,565.1
2018-08-12T03:30:57.357Z,564.8
2018-08-12T03:31:59.811Z,565.4
2018-08-12T03:33:01.986Z,565.3
2018-08-12T03:34:04.422Z,565.4
2018-08-12T03:35:06.596Z,565.5
2018-08-12T03:36:09.047Z,565.7
2018-08-12T03:37:10.934Z,565.4
2018-08-12T03:38:12.830Z,565.4
2018-08-12T03:39:14.716Z,565.9
2018-08-12T03:40:16.630Z,565.8
2018-08-12T03:41:19.072Z,565.9
2018-08-12T03:42:21.517Z,565.9
2018-08-12T03:43:23.964Z,565.8
2018-08-12T03:44:26.130Z,565.6
2018-08-12T03:45:28.585Z,566
2018-08-12T03:46:30.460Z,566
2018-08-12T03:47:32.370Z,566.2
2018-08-12T03:48:34.825Z,566
2018-08-12T03:49:37.274Z,565.9
2018-08-12T03:50:39.714Z,566.2
2018-08-12T03:51:42.172Z,565.9
2018-08-12T03:52:44.329Z,566.1
2018-08-12T03:53:46.508Z,565.7
2018-08-12T03:54:48.961Z,565.5
2018-08-12T03:55:50.886Z,565.7
2018-08-12T03:56:53.334Z,565.7
2018-08-12T03:57:54.964Z,565.8
2018-08-12T03:58:56.865Z,565.5
2018-08-12T03:59:58.782Z,565.7
2018-08-12T04:01:00.949Z,565.9
2018-08-12T04:02:03.406Z,565.7
2018-08-12T04:03:05.862Z,565.9
2018-08-12T04:04:08.310Z,565.6
2018-08-12T04:05:10.187Z,565.4
2018-08-12T04:06:11.564Z,565.6
2018-08-12T04:07:13.727Z,565.4
2018-08-12T04:08:16.175Z,565.5
2018-08-12T04:09:18.613Z,565.5
2018-08-12T04:10:21.071Z,565.5
2018-08-12T04:11:23.508Z,565.4
2018-08-12T04:12:25.969Z,565.4
2018-08-12T04:13:28.165Z,565.5
2018-08-12T04:14:30.342Z,565.5
2018-08-12T04:15:32.786Z,565.3
2018-08-12T04:16:35.243Z,565.7
2018-08-12T04:17:37.421Z,565.3
2018-08-12T04:18:39.593Z,565.3
2018-08-12T04:19:41.488Z,565.5
2018-08-12T04:20:43.139Z,565.3
2018-08-12T04:21:45.054Z,565.5
2018-08-12T04:22:47.491Z,565.7
2018-08-12T04:23:49.393Z,565.7
2018-08-12T04:24:51.831Z,565.7
2018-08-12T04:25:54.006Z,566
2018-08-12T04:26:55.911Z,565.9
2018-08-12T04:27:58.078Z,565.7
2018-08-12T04:29:00.530Z,566
2018-08-12T04:30:02.703Z,565.7
2018-08-12T04:31:04.618Z,565.9
2018-08-12T04:32:07.057Z,565.5
2018-08-12T04:33:08.955Z,565.7
2018-08-12T04:34:10.856Z,565.8
2018-08-12T04:35:13.067Z,565.8
2018-08-12T04:36:15.517Z,565.8
2018-08-12T04:37:17.161Z,565.6
2018-08-12T04:38:19.618Z,565.6
2018-08-12T04:39:21.536Z,565.7
2018-08-12T04:40:23.968Z,565.8
2018-08-12T04:41:25.880Z,566.2
2018-08-12T04:42:28.317Z,566.3
2018-08-12T04:43:30.477Z,566.1
2018-08-12T04:44:32.373Z,565.8
2018-08-12T04:45:34.819Z,566.1
2018-08-12T04:46:36.689Z,566.1
2018-08-12T04:47:39.125Z,566.1
2018-08-12T04:48:41.007Z,566.5
2018-08-12T04:49:43.206Z,566.6
2018-08-12T04:50:45.376Z,566.5
2018-08-12T04:51:47.555Z,566.5
2018-08-12T04:52:50.005Z,566.8
2018-08-12T04:53:52.168Z,567.2
2018-08-12T04:54:54.352Z,567.2
2018-08-12T04:55:56.815Z,567.3
2018-08-12T04:56:58.987Z,567.2
2018-08-12T04:58:01.158Z,567.1
2018-08-12T04:59:03.596Z,567
2018-08-12T05:00:06.048Z,567.2
2018-08-12T05:01:08.489Z,567.1
2018-08-12T05:02:10.941Z,567.1
2018-08-12T05:03:13.387Z,567.2
2018-08-12T05:04:15.596Z,567
2018-08-12T05:05:18.044Z,567.2
2018-08-12T05:06:20.526Z,567.1
2018-08-12T05:07:23.006Z,567.2
2018-08-12T05:08:25.455Z,567.5
2018-08-12T05:09:27.906Z,567.3
2018-08-12T05:10:30.355Z,567.4
2018-08-12T05:11:32.537Z,567.6
2018-08-12T05:12:34.690Z,567.6
2018-08-12T05:13:37.136Z,567.7
2018-08-12T05:14:39.595Z,567.8
2018-08-12T05:15:41.781Z,568.1
2018-08-12T05:16:43.976Z,567.8
2018-08-12T05:17:46.136Z,568
2018-08-12T05:18:47.758Z,567.6
2018-08-12T05:19:49.946Z,567.9
2018-08-12T05:20:52.091Z,567.7
2018-08-12T05:21:54.268Z,567.9
2018-08-12T05:22:56.437Z,568
2018-08-12T05:23:58.591Z,567.8
2018-08-12T05:25:00.769Z,568.1
2018-08-12T05:26:02.673Z,568.1
2018-08-12T05:27:05.145Z,568.2
2018-08-12T05:28:07.321Z,568.3
2018-08-12T05:29:09.505Z,568.5
2018-08-12T05:30:11.942Z,568.4
2018-08-12T05:31:13.851Z,568.5
2018-08-12T05:32:16.296Z,568.4
2018-08-12T05:33:17.916Z,568.5
2018-08-12T05:34:20.090Z,568.6
2018-08-12T05:35:22.257Z,568.6
2018-08-12T05:36:24.712Z,568.9
2018-08-12T05:37:26.868Z,568.9
2018-08-12T05:38:29.323Z,568.9
2018-08-12T05:39:31.772Z,569.3
2018-08-12T05:40:34.221Z,569.1
2018-08-12T05:41:36.398Z,569.2
2018-08-12T05:42:38.272Z,569.2
2018-08-12T05:43:40.714Z,569
2018-08-12T05:44:43.177Z,569.4
2018-08-12T05:45:45.341Z,569.5
2018-08-12T05:46:47.525Z,569.4
2018-08-12T05:47:49.979Z,569.4
2018-08-12T05:48:52.439Z,569.7
2018-08-12T05:49:54.893Z,569.5
2018-08-12T05:50:56.836Z,569.8
2018-08-12T05:51:59.052Z,569.5
2018-08-12T05:53:01.493Z,570.1
2018-08-12T05:54:03.946Z,570.4
2018-08-12T05:55:06.397Z,570.1
2018-08-12T05:56:08.859Z,570.2
2018-08-12T05:57:11.313Z,570.2
2018-08-12T05:58:13.765Z,570.3
2018-08-12T05:59:15.947Z,570.2
2018-08-12T06:00:18.404Z,570.2
2018-08-12T06:01:20.593Z,570.3
2018-08-12T06:02:22.764Z,570.4
2018-08-12T06:03:24.668Z,570.4
2018-08-12T06:04:27.106Z,570.2
2018-08-12T06:05:29.292Z,570.3
2018-08-12T06:06:31.746Z,570.1
2018-08-12T06:07:33.902Z,570.2
2018-08-12T06:08:36.358Z,570.3
2018-08-12T06:09:37.989Z,570.1
2018-08-12T06:10:40.165Z,570.5
2018-08-12T06:11:42.349Z,570.4
2018-08-12T06:12:44.803Z,570.9
2018-08-12T06:13:47.264Z,570.7
2018-08-12T06:14:49.424Z,570.6
2018-08-12T06:15:51.598Z,570.8
2018-08-12T06:16:53.791Z,570.5
2018-08-12T06:17:55.677Z,570.8
2018-08-12T06:18:57.582Z,570.8
2018-08-12T06:20:00.021Z,570.9
2018-08-12T06:21:01.927Z,571
2018-08-12T06:22:04.121Z,571
2018-08-12T06:23:06.564Z,571.5
2018-08-12T06:24:09.001Z,571.2
2018-08-12T06:25:11.446Z,571.3
2018-08-12T06:26:13.906Z,571.5
2018-08-12T06:27:16.073Z,571.2
2018-08-12T06:28:18.254Z,571.6
2018-08-12T06:29:20.436Z,571.3
2018-08-12T06:30:22.905Z,571.4
2018-08-12T06:31:25.264Z,571.3
2018-08-12T06:32:27.805Z,571.1
2018-08-12T06:33:30.266Z,571.2
2018-08-12T06:34:32.936Z,571.1
2018-08-12T06:35:35.102Z,571.2
2018-08-12T06:36:37.270Z,571.2
2018-08-12T06:37:39.457Z,571.3
2018-08-12T06:38:41.628Z,571.4
2018-08-12T06:39:43.815Z,571.4
2018-08-12T06:40:46.268Z,571.4
2018-08-12T06:41:48.723Z,571.1
2018-08-12T06:42:51.162Z,570.9
2018-08-12T06:43:53.317Z,570.9
2018-08-12T06:44:55.491Z,571.2
2018-08-12T06:45:57.690Z,571.7
2018-08-12T06:47:00.137Z,571.6
2018-08-12T06:48:02.595Z,571.6
2018-08-12T06:49:04.758Z,571.7
2018-08-12T06:50:07.198Z,571.6
2018-08-12T06:51:09.103Z,571.7
2018-08-12T06:52:11.287Z,571.9
2018-08-12T06:53:12.905Z,571.8
2018-08-12T06:54:15.350Z,572
2018-08-12T06:55:17.795Z,571.8
2018-08-12T06:56:20.256Z,571.9
2018-08-12T06:57:22.724Z,572.2
2018-08-12T06:58:25.184Z,572.2
2018-08-12T06:59:27.088Z,572
2018-08-12T07:00:29.367Z,572.2
2018-08-12T07:01:31.561Z,572.1
2018-08-12T07:02:34.009Z,572.3
2018-08-12T07:03:36.457Z,572.3
2018-08-12T07:04:38.913Z,572.2
2018-08-12T07:05:41.376Z,572.5
2018-08-12T07:06:43.817Z,572.4
2018-08-12T07:07:45.725Z,572.5
2018-08-12T07:08:48.187Z,572.4
2018-08-12T07:09:50.642Z,572.6
2018-08-12T07:10:53.100Z,572.5
2018-08-12T07:11:55.025Z,572.6
2018-08-12T07:12:57.492Z,572.6
2018-08-12T07:13:59.374Z,572.7
2018-08-12T07:15:01.269Z,572.6
2018-08-12T07:16:03.734Z,572.7
2018-08-12T07:17:06.163Z,573.3
2018-08-12T07:18:08.618Z,572.7
2018-08-12T07:19:10.791Z,573.1
2018-08-12T07:20:13.240Z,572.8
2018-08-12T07:21:15.421Z,573.1
2018-08-12T07:22:17.601Z,573.4
2018-08-12T07:23:19.776Z,573.7
2018-08-12T07:24:22.227Z,573.2
2018-08-12T07:25:24.682Z,573.5
2018-08-12T07:26:26.599Z,573.9
2018-08-12T07:27:29.045Z,573.9
2018-08-12T07:28:31.237Z,574.6
2018-08-12T07:29:33.119Z,574.4
2018-08-12T07:30:35.031Z,575
2018-08-12T07:31:37.487Z,574.8
2018-08-12T07:32:39.669Z,574.8
2018-08-12T07:33:41.841Z,575
2018-08-12T07:34:43.997Z,575.3
2018-08-12T07:35:45.913Z,575.6
2018-08-12T07:36:48.367Z,575.7
2018-08-12T07:37:50.528Z,575.5
2018-08-12T07:38:52.955Z,575.6
2018-08-12T07:39:55.127Z,576.2
2018-08-12T07:40:57.577Z,576
2018-08-12T07:41:59.766Z,575.7
2018-08-12T07:43:01.955Z,576
2018-08-12T07:44:03.876Z,576
2018-08-12T07:45:06.044Z,576
2018-08-12T07:46:08.487Z,576.3
2018-08-12T07:47:10.956Z,576.4
2018-08-12T07:48:12.919Z,576.5
2018-08-12T07:49:15.363Z,576.7
2018-08-12T07:50:17.816Z,576.7
2018-08-12T07:51:19.966Z,576.8
2018-08-12T07:52:21.858Z,576.7
2018-08-12T07:53:24.047Z,576.7
2018-08-12T07:54:26.229Z,576.3
2018-08-12T07:55:28.619Z,576.6
2018-08-12T07:56:31.064Z,576.9
2018-08-12T07:57:33.269Z,577.1
2018-08-12T07:58:35.446Z,577.2
2018-08-12T07:59:37.627Z,577.1
2018-08-12T08:00:39.799Z,577.1
2018-08-12T08:01:41.972Z,577
2018-08-12T08:02:44.158Z,577.1
2018-08-12T08:03:46.609Z,577.6
2018-08-12T08:04:49.067Z,577.2
2018-08-12T08:05:50.975Z,577.5
2018-08-12T08:06:53.427Z,577.2
2018-08-12T08:07:55.892Z,577.2
2018-08-12T08:08:58.057Z,577.5
2018-08-12T08:10:00.228Z,577.8
2018-08-12T08:11:01.838Z,577.9
2018-08-12T08:12:04.281Z,577.5
2018-08-12T08:13:06.468Z,577.8
2018-08-12T08:14:08.390Z,577.7
2018-08-12T08:15:10.849Z,577.9
2018-08-12T08:16:13.025Z,577.7
2018-08-12T08:17:15.197Z,578
2018-08-12T08:18:17.652Z,577.9
2018-08-12T08:19:19.567Z,578.2
2018-08-12T08:20:21.449Z,578.3
2018-08-12T08:21:23.326Z,578.1
2018-08-12T08:22:25.227Z,577.8
2018-08-12T08:23:27.687Z,577.7
2018-08-12T08:24:29.591Z,578.4
2018-08-12T08:25:32.401Z,578
2018-08-12T08:26:34.396Z,577.9
2018-08-12T08:27:36.848Z,578.1
2018-08-12T08:28:39.291Z,578.6
2018-08-12T08:29:41.745Z,578.5
2018-08-12T08:30:43.933Z,578.5
2018-08-12T08:31:47.238Z,578.6
2018-08-12T08:32:49.671Z,578
2018-08-12T08:33:52.119Z,578.3
2018-08-12T08:34:54.032Z,578.1
2018-08-12T08:35:56.481Z,578.5
2018-08-12T08:36:58.109Z,578.5
2018-08-12T08:38:00.680Z,577.9
2018-08-12T08:39:02.827Z,578.2
2018-08-12T08:40:05.257Z,578.7
2018-08-12T08:41:07.707Z,578.6
2018-08-12T08:42:09.883Z,578.6
2018-08-12T08:43:11.487Z,578.6
2018-08-12T08:44:13.942Z,578.7
2018-08-12T08:45:16.407Z,578.4
2018-08-12T08:46:18.861Z,578.8
2018-08-12T08:47:21.012Z,578.4
2018-08-12T08:48:23.456Z,578.5
2018-08-12T08:49:25.649Z,578.6
2018-08-12T08:50:28.094Z,578.1
2018-08-12T08:51:30.241Z,578
2018-08-12T08:52:32.700Z,578
2018-08-12T08:53:35.146Z,578.3
2018-08-12T08:54:36.762Z,578.7
2018-08-12T08:55:39.491Z,578.7
2018-08-12T08:56:41.717Z,578.7
2018-08-12T08:57:43.892Z,578.8
2018-08-12T08:58:46.067Z,578.6
2018-08-12T08:59:48.503Z,578.6
2018-08-12T09:00:50.398Z,579
2018-08-12T09:01:52.867Z,578.9
2018-08-12T09:02:55.056Z,579
2018-08-12T09:03:57.200Z,579.2
2018-08-12T09:04:59.657Z,579.2
2018-08-12T09:06:02.111Z,578.6
2018-08-12T09:07:04.280Z,578.9
2018-08-12T09:08:06.677Z,579
2018-08-12T09:09:11.534Z,579.1
2018-08-12T09:10:14.167Z,579.4
2018-08-12T09:11:16.630Z,579.1
2018-08-12T09:12:19.088Z,579.7
2018-08-12T09:13:21.526Z,579.9
2018-08-12T09:14:23.708Z,579.5
2018-08-12T09:15:25.859Z,579.6
2018-08-12T09:16:28.305Z,579.7
2018-08-12T09:17:30.185Z,579.9
2018-08-12T09:18:32.376Z,580
2018-08-12T09:19:34.562Z,580
2018-08-12T09:20:37.004Z,580.1
2018-08-12T09:21:38.606Z,580.4
2018-08-12T09:22:41.085Z,580.5
2018-08-12T09:23:43.557Z,580.3
2018-08-12T09:24:46.004Z,580.1
2018-08-12T09:25:48.460Z,580.1
2018-08-12T09:26:50.939Z,580.1
2018-08-12T09:27:53.107Z,580.3
2018-08-12T09:28:55.588Z,580.4
2018-08-12T09:29:58.055Z,580.3
2018-08-12T09:30:59.974Z,580.3
2018-08-12T09:32:02.432Z,580.4
2018-08-12T09:33:04.880Z,580.5
2018-08-12T09:34:07.030Z,580.7
2018-08-12T09:35:09.475Z,580.6
2018-08-12T09:36:11.406Z,580.8
2018-08-12T09:37:13.848Z,580.9
2018-08-12T09:38:16.304Z,580.5
2018-08-12T09:39:18.519Z,580.9
2018-08-12T09:40:20.773Z,581.1
2018-08-12T09:41:23.224Z,581.2
2018-08-12T09:42:25.112Z,581.2
2018-08-12T09:43:27.304Z,581.6
2018-08-12T09:44:29.762Z,581.6
2018-08-12T09:45:32.200Z,581.7
2018-08-12T09:46:34.386Z,581.8
2018-08-12T09:47:36.254Z,581.4
2018-08-12T09:48:38.700Z,581.9
2018-08-12T09:49:40.592Z,581.8
2018-08-12T09:50:43.034Z,582.2
2018-08-12T09:51:45.974Z,582.2
2018-08-12T09:52:48.553Z,582.5
2018-08-12T09:53:50.775Z,582.2
2018-08-12T09:54:52.927Z,582.2
2018-08-12T09:55:55.410Z,581.9
2018-08-12T09:56:57.586Z,582.3
2018-08-12T09:58:00.033Z,582.1
2018-08-12T09:59:01.657Z,582.1
2018-08-12T10:00:03.816Z,582.1
2018-08-12T10:01:05.714Z,582.4
2018-08-12T10:02:08.161Z,582.8
2018-08-12T10:03:10.340Z,583
2018-08-12T10:04:12.809Z,582.7
2018-08-12T10:05:14.993Z,582.6
2018-08-12T10:06:17.169Z,582.5
2018-08-12T10:07:19.759Z,582.4
2018-08-12T10:08:22.210Z,582.5
2018-08-12T10:09:24.650Z,582.6
2018-08-12T10:10:26.856Z,582.7
2018-08-12T10:11:29.291Z,582.8
2018-08-12T10:12:31.470Z,582.4
2018-08-12T10:13:33.622Z,582.5
2018-08-12T10:14:35.805Z,582.9
2018-08-12T10:15:37.632Z,582.7
2018-08-12T10:16:40.155Z,583.1
2018-08-12T10:17:42.616Z,583.2
2018-08-12T10:18:44.770Z,583.2
2018-08-12T10:19:47.226Z,583.7
2018-08-12T10:20:49.111Z,583.6
2018-08-12T10:21:51.008Z,583.5
2018-08-12T10:22:52.920Z,583.7
2018-08-12T10:23:55.370Z,583.7
2018-08-12T10:24:57.823Z,584
2018-08-12T10:26:00.258Z,584
2018-08-12T10:27:02.705Z,583.8
2018-08-12T10:28:05.144Z,583.7
2018-08-12T10:29:07.419Z,584.2
2018-08-12T10:30:09.601Z,584.1
2018-08-12T10:31:12.052Z,584.2
2018-08-12T10:32:14.490Z,584
2018-08-12T10:33:16.671Z,584.2
2018-08-12T10:34:18.859Z,584.4
2018-08-12T10:35:21.038Z,584.5
2018-08-12T10:36:23.206Z,584.4
2018-08-12T10:37:25.378Z,584.7
2018-08-12T10:38:27.563Z,584.7
2018-08-12T10:39:29.710Z,585.2
2018-08-12T10:40:31.876Z,585.5
2018-08-12T10:41:34.334Z,585.4
2018-08-12T10:42:36.520Z,585.8
2018-08-12T10:43:38.958Z,585.7
2018-08-12T10:44:40.859Z,585.7
2018-08-12T10:45:43.033Z,585.4
2018-08-12T10:46:45.214Z,585.7
2018-08-12T10:47:47.665Z,586.5
2018-08-12T10:48:49.803Z,587.2
2018-08-12T10:49:51.970Z,587.1
2018-08-12T10:50:54.492Z,586.8
2018-08-12T10:51:56.483Z,587.3
2018-08-12T10:52:58.937Z,587.8
2018-08-12T10:54:01.120Z,587.5
2018-08-12T10:55:03.331Z,588
2018-08-12T10:56:05.496Z,588
2018-08-12T10:57:07.944Z,588.3
2018-08-12T10:58:10.409Z,588.3
2018-08-12T10:59:12.895Z,587.6
2018-08-12T11:00:15.332Z,588
2018-08-12T11:01:17.254Z,588.2
2018-08-12T11:02:18.876Z,588.2
2018-08-12T11:03:21.338Z,588.2
2018-08-12T11:04:23.788Z,588.7
2018-08-12T11:05:26.243Z,588.4
2018-08-12T11:06:28.157Z,588.1
2018-08-12T11:07:30.808Z,588.2
2018-08-12T11:08:32.763Z,588.2
2018-08-12T11:09:34.665Z,588.1
2018-08-12T11:10:37.117Z,588.4
2018-08-12T11:11:39.555Z,588
2018-08-12T11:12:41.673Z,588.1
2018-08-12T11:13:43.948Z,588.1
2018-08-12T11:14:46.139Z,588.6
2018-08-12T11:15:48.594Z,588.3
2018-08-12T11:16:50.776Z,588.2
2018-08-12T11:17:53.217Z,588.4
2018-08-12T11:18:55.398Z,588.6
2018-08-12T11:19:57.288Z,588.9
2018-08-12T11:20:59.729Z,589.1
2018-08-12T11:22:02.183Z,589.3
2018-08-12T11:23:04.091Z,589.6
2018-08-12T11:24:06.265Z,589.4
2018-08-12T11:25:08.432Z,589.5
2018-08-12T11:26:10.629Z,589.9
2018-08-12T11:27:12.814Z,589.9
2018-08-12T11:28:15.010Z,589.9
2018-08-12T11:29:17.202Z,589.6
2018-08-12T11:30:19.383Z,590
2018-08-12T11:31:21.563Z,589.2
2018-08-12T11:32:23.713Z,589.3
2018-08-12T11:33:25.894Z,589.4
2018-08-12T11:34:27.817Z,589.2
2018-08-12T11:35:29.422Z,589.5
2018-08-12T11:36:31.347Z,589.9
2018-08-12T11:37:33.539Z,589.7
2018-08-12T11:38:35.729Z,589.6
2018-08-12T11:39:37.366Z,589.7
2018-08-12T11:40:39.255Z,590
2018-08-12T11:41:41.151Z,589.9
2018-08-12T11:42:43.598Z,590.2
2018-08-12T11:43:45.771Z,590.1
2018-08-12T11:44:48.214Z,590.8
2018-08-12T11:45:50.127Z,590.6
2018-08-12T11:46:52.033Z,590.8
2018-08-12T11:47:53.964Z,591.3
2018-08-12T11:48:56.411Z,591.2
2018-08-12T11:49:58.332Z,591.2
2018-08-12T11:51:00.482Z,591.6
2018-08-12T11:52:02.656Z,591.6
2018-08-12T11:53:05.107Z,591.8
2018-08-12T11:54:07.305Z,592.7
2018-08-12T11:55:09.786Z,592.7
2018-08-12T11:56:11.690Z,592.8
2018-08-12T11:57:14.154Z,592.7
2018-08-12T11:58:16.606Z,592.9
2018-08-12T11:59:18.788Z,593.2
2018-08-12T12:00:20.698Z,592.8
2018-08-12T12:01:23.153Z,593
2018-08-12T12:02:25.068Z,593
2018-08-12T12:03:27.239Z,592.8
2018-08-12T12:04:29.756Z,592.9
2018-08-12T12:05:31.997Z,593.5
2018-08-12T12:06:34.456Z,593.5
2018-08-12T12:07:36.637Z,593.1
2018-08-12T12:08:38.860Z,592.8
2018-08-12T12:09:41.298Z,593
2018-08-12T12:10:43.478Z,593.5
2018-08-12T12:11:45.656Z,593.4
2018-08-12T12:12:47.844Z,593.8
2018-08-12T12:13:50.295Z,593.7
2018-08-12T12:14:52.205Z,593.6
2018-08-12T12:15:54.646Z,593.9
2018-08-12T12:16:56.795Z,594.2
2018-08-12T12:17:59.238Z,594
2018-08-12T12:19:01.417Z,593.8
2018-08-12T12:20:03.862Z,594.1
2018-08-12T12:21:06.310Z,594
2018-08-12T12:22:08.757Z,594.2
2018-08-12T12:23:11.225Z,594.2
2018-08-12T12:24:13.389Z,594.4
2018-08-12T12:25:15.294Z,594.1
2018-08-12T12:26:17.735Z,594.6
2018-08-12T12:27:19.646Z,594.5
2018-08-12T12:28:21.837Z,594.8
2018-08-12T12:29:23.743Z,595.1
2018-08-12T12:30:26.196Z,594.6
2018-08-12T12:31:28.381Z,594.7
2018-08-12T12:32:30.582Z,594.8
2018-08-12T12:33:33.044Z,595
2018-08-12T12:34:35.490Z,594.8
2018-08-12T12:35:38.429Z,595.1
2018-08-12T12:36:40.919Z,595
2018-08-12T12:37:42.544Z,595
2018-08-12T12:38:44.695Z,595.5
2018-08-12T12:39:46.603Z,595.9
2018-08-12T12:40:48.786Z,595.7
2018-08-12T12:41:50.969Z,596.2
2018-08-12T12:42:53.443Z,596.3
2018-08-12T12:43:55.554Z,596.5
2018-08-12T12:44:57.998Z,596.9
2018-08-12T12:46:00.180Z,596.6
2018-08-12T12:47:02.636Z,596.9
2018-08-12T12:48:04.545Z,597
2018-08-12T12:49:06.732Z,597.4
2018-08-12T12:50:09.359Z,597.4
2018-08-12T12:51:11.544Z,597.5
2018-08-12T12:52:13.725Z,597.2
2018-08-12T12:53:15.913Z,597.9
2018-08-12T12:54:18.362Z,597.5
2018-08-12T12:55:20.592Z,597.5
2018-08-12T12:56:23.057Z,597.8
2018-08-12T12:57:25.584Z,597.8
2018-08-12T12:58:28.040Z,598
2018-08-12T12:59:30.215Z,598.1
2018-08-12T13:00:32.404Z,598.1
2018-08-12T13:01:34.589Z,598
2018-08-12T13:02:36.767Z,598.1
2018-08-12T13:03:38.959Z,597.8
2018-08-12T13:04:41.404Z,598.5
2018-08-12T13:05:43.578Z,598.6
2018-08-12T13:06:46.035Z,598.9
2018-08-12T13:07:48.483Z,598.9
2018-08-12T13:08:50.931Z,598.9
2018-08-12T13:09:53.397Z,599.3
2018-08-12T13:10:55.838Z,599.1
2018-08-12T13:11:58.281Z,599.4
2018-08-12T13:13:00.727Z,599.6
2018-08-12T13:14:02.648Z,599.6
2018-08-12T13:15:05.092Z,599.9
2018-08-12T13:16:07.292Z,600
2018-08-12T13:17:09.207Z,600.1
2018-08-12T13:18:11.390Z,600.4
2018-08-12T13:19:13.838Z,600.2
2018-08-12T13:20:16.301Z,600.2
2018-08-12T13:21:17.922Z,600.4
2018-08-12T13:22:20.379Z,600.3
2018-08-12T13:23:22.561Z,600.3
2018-08-12T13:24:24.727Z,600.3
2018-08-12T13:25:27.181Z,600.2
2018-08-12T13:26:29.342Z,600.5